Time;durP1;ratioP1;P1;durP2;ratioP2;P2;SDS_P1;SDS_P2;PMS_P1;PMS_P2;Temp;Humidity;BMP_temperature;BMP_pressure;BME280_temperature;BME280_humidity;BME280_pressure;Samples;Min_cycle;Max_cycle;Signal;HPM_P1;HPM_P2
2022/11/21 00:01:53;;;;;;;27.63;11.35;;;;;;;4.72;100.00;100539.38;5035813;28;20037;-80
2022/11/21 00:04:18;;;;;;;28.08;11.93;;;;;;;4.47;100.00;100514.00;5035567;28;20376;-79
2022/11/21 00:06:43;;;;;;;22.17;11.60;;;;;;;4.75;100.00;100543.50;5035192;28;20025;-78
2022/11/21 00:09:08;;;;;;;21.30;11.63;;;;;;;4.72;100.00;100526.59;5035564;28;20021;-78
2022/11/21 00:11:34;;;;;;;24.60;10.18;;;;;;;4.69;100.00;100520.75;5035739;28;20121;-79
2022/11/21 00:13:59;;;;;;;20.23;10.05;;;;;;;4.60;100.00;100514.31;5018093;28;20026;-79
2022/11/21 00:16:24;;;;;;;18.42;9.57;;;;;;;4.60;100.00;100527.91;5035732;28;20025;-80
2022/11/21 00:18:50;;;;;;;21.35;10.65;;;;;;;4.46;100.00;100517.47;5033828;28;20033;-80
2022/11/21 00:21:17;;;;;;;23.75;13.15;;;;;;;4.45;100.00;100532.88;5035278;28;20471;-80
2022/11/21 00:23:44;;;;;;;22.88;13.82;;;;;;;4.60;100.00;100566.28;5017205;28;20034;-80
2022/11/21 00:26:11;;;;;;;34.05;17.02;;;;;;;4.51;100.00;100566.66;5035109;28;20030;-80
2022/11/21 00:28:36;;;;;;;31.77;17.83;;;;;;;4.50;100.00;100580.34;5035309;28;20033;-80
2022/11/21 00:31:03;;;;;;;42.45;22.52;;;;;;;4.28;100.00;100572.75;5017506;28;20128;-80
2022/11/21 00:33:28;;;;;;;41.67;22.42;;;;;;;4.26;100.00;100581.38;5035062;28;20025;-80
2022/11/21 00:35:53;;;;;;;42.47;24.35;;;;;;;4.22;100.00;100583.19;5035314;28;20029;-80
2022/11/21 00:38:19;;;;;;;43.92;24.38;;;;;;;4.17;100.00;100585.13;5035026;28;20093;-80
2022/11/21 00:40:44;;;;;;;44.35;25.80;;;;;;;4.05;100.00;100577.97;5035149;28;20113;-80
2022/11/21 00:43:10;;;;;;;49.17;27.25;;;;;;;3.97;100.00;100573.16;5035055;28;20029;-79
2022/11/21 00:45:35;;;;;;;49.00;27.77;;;;;;;3.89;100.00;100552.19;5034990;28;20052;-79
2022/11/21 00:48:01;;;;;;;44.35;27.25;;;;;;;3.79;100.00;100540.66;5034863;28;20033;-78
2022/11/21 00:50:26;;;;;;;46.10;28.10;;;;;;;3.69;100.00;100536.81;5016927;28;20465;-79
2022/11/21 00:52:56;;;;;;;46.53;27.95;;;;;;;3.59;100.00;100538.06;5034849;28;20418;-80
2022/11/21 00:55:22;;;;;;;48.03;27.80;;;;;;;3.55;100.00;100552.69;5034921;28;20026;-80
2022/11/21 00:57:47;;;;;;;48.55;28.17;;;;;;;3.30;100.00;100522.13;5034801;28;20060;-80
2022/11/21 01:00:13;;;;;;;50.03;28.95;;;;;;;3.46;100.00;100568.34;5034878;28;20060;-81
2022/11/21 01:02:38;;;;;;;45.85;28.15;;;;;;;3.49;100.00;100558.00;5034500;28;20033;-81
2022/11/21 01:05:04;;;;;;;49.25;29.55;;;;;;;3.22;100.00;100510.56;5034622;28;20021;-80
2022/11/21 01:07:29;;;;;;;50.03;29.38;;;;;;;3.55;100.00;100565.44;5034584;28;20029;-80
2022/11/21 01:09:55;;;;;;;52.65;30.15;;;;;;;3.52;100.00;100567.25;5034405;28;20026;-80
2022/11/21 01:12:20;;;;;;;47.00;27.77;;;;;;;3.49;100.00;100568.22;5034511;28;20021;-80
2022/11/21 01:14:45;;;;;;;46.83;27.42;;;;;;;3.49;100.00;100568.22;5034398;28;20083;-80
2022/11/21 01:17:11;;;;;;;46.58;27.15;;;;;;;3.46;100.00;100570.91;5034256;28;20025;-80
2022/11/21 01:19:36;;;;;;;51.85;27.77;;;;;;;3.47;100.00;100577.66;5033508;28;20026;-80
2022/11/21 01:22:01;;;;;;;48.70;27.80;;;;;;;3.21;100.00;100539.50;5034241;28;20040;-79
2022/11/21 01:24:27;;;;;;;49.90;28.90;;;;;;;3.33;100.00;100567.94;5034092;28;20017;-80
2022/11/21 01:26:53;;;;;;;47.95;27.67;;;;;;;3.31;100.00;100564.63;5034205;28;20515;-80
2022/11/21 01:29:21;;;;;;;49.85;27.88;;;;;;;3.27;100.00;100546.94;5034109;28;20044;-79
2022/11/21 01:31:46;;;;;;;52.58;29.48;;;;;;;3.24;100.00;100536.84;5034133;28;20109;-80
2022/11/21 01:34:13;;;;;;;45.05;27.13;;;;;;;3.40;100.00;100563.47;5034189;28;20120;-79
2022/11/21 01:36:39;;;;;;;50.80;28.58;;;;;;;3.12;100.00;100516.00;5033912;28;20457;-80
2022/11/21 01:39:06;;;;;;;49.08;28.70;;;;;;;3.29;100.00;100551.09;5033741;28;20044;-79
2022/11/21 01:41:34;;;;;;;49.50;28.02;;;;;;;3.23;100.00;100548.78;5033935;28;20037;-80
2022/11/21 01:44:20;;;;;;;48.63;28.25;;;;;;;3.34;100.00;100556.88;5033786;28;20021;-79
2022/11/21 01:46:47;;;;;;;51.60;28.42;;;;;;;3.33;100.00;100531.41;5033876;28;20108;-79
2022/11/21 01:49:26;;;;;;;48.88;26.88;;;;;;;3.30;100.00;100537.44;5033674;28;20412;-80
2022/11/21 01:52:12;;;;;;;49.72;27.75;;;;;;;3.27;100.00;100552.88;5033854;28;20021;-80
2022/11/21 01:54:46;;;;;;;53.17;26.52;;;;;;;3.27;100.00;100565.66;5033580;28;20017;-80
2022/11/21 01:57:24;;;;;;;58.50;29.98;;;;;;;3.32;100.00;100565.47;5033772;28;20033;-80
2022/11/21 01:59:54;;;;;;;54.78;29.15;;;;;;;3.34;100.00;100571.34;5033464;28;20026;-80
2022/11/21 02:02:24;;;;;;;55.88;29.00;;;;;;;3.19;100.00;100549.78;5033716;28;20112;-81
2022/11/21 02:04:51;;;;;;;51.42;28.38;;;;;;;3.10;100.00;100535.63;5033662;28;20053;-80
2022/11/21 02:07:20;;;;;;;53.38;29.45;;;;;;;3.27;100.00;100560.53;5033428;28;20469;-80
2022/11/21 02:09:49;;;;;;;52.97;30.05;;;;;;;3.24;100.00;100547.03;5033381;28;20465;-80
2022/11/21 02:12:25;;;;;;;56.72;28.90;;;;;;;3.40;100.00;100566.00;5033389;28;20028;-80
2022/11/21 02:14:51;;;;;;;47.28;28.88;;;;;;;3.39;100.00;100562.63;5033334;28;20477;-80
2022/11/21 02:17:17;;;;;;;53.15;29.17;;;;;;;3.42;100.00;100551.47;5033397;28;20038;-80
2022/11/21 02:19:48;;;;;;;55.10;29.35;;;;;;;3.40;100.00;100561.75;5033332;28;20032;-80
2022/11/21 02:22:38;;;;;;;55.75;29.67;;;;;;;3.42;100.00;100569.34;5033543;28;20439;-80
2022/11/21 02:25:18;;;;;;;53.85;28.65;;;;;;;3.42;100.00;100559.13;5033064;28;20087;-80
2022/11/21 02:27:44;;;;;;;50.45;27.67;;;;;;;3.19;100.00;100531.09;5033113;28;20033;-79
2022/11/21 02:30:11;;;;;;;54.38;28.17;;;;;;;3.35;100.00;100560.25;5033018;28;20029;-80
2022/11/21 02:32:46;;;;;;;52.22;28.08;;;;;;;3.44;100.00;100580.31;5033168;28;20029;-80
2022/11/21 02:35:12;;;;;;;54.58;28.48;;;;;;;3.32;100.00;100558.63;5033116;28;20025;-80
2022/11/21 02:37:37;;;;;;;50.97;28.05;;;;;;;3.40;100.00;100581.31;5033096;28;20051;-80
2022/11/21 02:40:09;;;;;;;49.15;27.17;;;;;;;3.38;100.00;100575.44;5033036;28;20021;-79
2022/11/21 02:42:58;;;;;;;50.78;27.10;;;;;;;3.45;100.00;100589.66;5033007;28;20034;-80
2022/11/21 02:45:30;;;;;;;49.83;28.52;;;;;;;3.37;100.00;100581.44;5032757;28;20042;-80
2022/11/21 02:47:56;;;;;;;50.85;28.05;;;;;;;3.36;100.00;100574.69;5032842;28;20041;-79
2022/11/21 02:50:27;;;;;;;52.50;28.35;;;;;;;3.19;100.00;100551.50;5032982;28;20026;-80
2022/11/21 02:52:54;;;;;;;56.88;28.45;;;;;;;3.36;100.00;100588.28;5032945;28;20473;-79
2022/11/21 02:55:19;;;;;;;52.55;28.25;;;;;;;3.36;100.00;100595.94;5032589;28;20028;-80
2022/11/21 02:57:44;;;;;;;61.65;30.80;;;;;;;3.21;100.00;100568.41;5033266;28;20025;-80
2022/11/21 03:00:10;;;;;;;55.97;29.83;;;;;;;3.39;100.00;100594.97;5032917;28;20112;-80
2022/11/21 03:02:36;;;;;;;71.97;30.85;;;;;;;3.41;100.00;100601.69;5032880;28;20535;-80
2022/11/21 03:05:04;;;;;;;61.35;30.83;;;;;;;3.41;100.00;100591.47;5032781;28;20029;-80
2022/11/21 03:07:29;;;;;;;55.55;29.60;;;;;;;3.43;100.00;100582.03;5032654;28;20104;-80
2022/11/21 03:09:54;;;;;;;62.72;29.58;;;;;;;3.32;100.00;100570.56;5032855;28;20061;-80
2022/11/21 03:12:20;;;;;;;64.00;28.42;;;;;;;3.27;100.00;100547.78;5032861;28;20080;-80
2022/11/21 03:14:45;;;;;;;60.72;28.83;;;;;;;3.34;100.00;100563.69;5032784;28;20519;-80
2022/11/21 03:17:10;;;;;;;56.28;28.45;;;;;;;3.36;100.00;100557.66;5032871;28;20083;-80
2022/11/21 03:19:36;;;;;;;53.92;28.35;;;;;;;3.41;100.00;100563.41;5032738;28;20030;-80
2022/11/21 03:22:01;;;;;;;50.47;27.25;;;;;;;3.43;100.00;100568.44;5032786;28;20026;-80
2022/11/21 03:24:26;;;;;;;53.13;27.50;;;;;;;3.44;100.00;100555.66;5032717;28;20029;-80
2022/11/21 03:26:52;;;;;;;54.28;28.65;;;;;;;3.29;100.00;100524.75;5032557;28;20045;-80
2022/11/21 03:29:17;;;;;;;58.22;29.30;;;;;;;3.36;100.00;100532.13;5032861;28;20041;-79
2022/11/21 03:31:42;;;;;;;52.08;28.17;;;;;;;3.48;100.00;100547.88;5032786;28;20029;-79
2022/11/21 03:34:08;;;;;;;56.08;28.95;;;;;;;3.48;100.00;100540.19;5032749;28;20032;-79
2022/11/21 03:36:33;;;;;;;58.83;29.88;;;;;;;3.30;100.00;100521.31;5032478;28;20025;-79
2022/11/21 03:38:59;;;;;;;59.25;28.75;;;;;;;3.40;100.00;100543.88;5032801;28;20049;-79
2022/11/21 03:41:28;;;;;;;64.85;29.10;;;;;;;3.47;100.00;100558.97;5032482;28;20040;-79
2022/11/21 03:44:05;;;;;;;85.00;28.85;;;;;;;3.29;100.00;100538.34;5035667;28;20469;-79
2022/11/21 03:46:32;;;;;;;67.47;28.75;;;;;;;3.36;100.00;100542.34;5018269;28;20124;-79
2022/11/21 03:48:58;;;;;;;70.75;28.02;;;;;;;3.42;100.00;100551.47;5036055;28;20524;-80
2022/11/21 03:51:24;;;;;;;69.80;28.65;;;;;;;3.31;100.00;100536.56;5036023;28;20101;-80
2022/11/21 03:53:49;;;;;;;65.47;28.38;;;;;;;3.45;100.00;100551.38;5036430;28;20052;-80
2022/11/21 03:56:15;;;;;;;62.05;28.17;;;;;;;3.30;100.00;100524.69;5036028;28;20377;-80
2022/11/21 03:58:41;;;;;;;59.50;28.02;;;;;;;3.40;100.00;100536.22;5035864;28;20113;-80
2022/11/21 04:01:06;;;;;;;54.97;26.58;;;;;;;3.39;100.00;100543.94;5035975;28;20030;-80
2022/11/21 04:03:32;;;;;;;58.20;28.33;;;;;;;3.38;100.00;100548.22;5017917;28;20043;-80
2022/11/21 04:05:58;;;;;;;60.92;27.85;;;;;;;3.39;100.00;100552.41;5034104;28;20065;-79
2022/11/21 04:08:23;;;;;;;66.03;28.80;;;;;;;3.38;100.00;100549.94;5035854;28;20108;-80
2022/11/21 04:10:50;;;;;;;58.88;27.65;;;;;;;3.21;100.00;100526.75;5035919;28;20068;-80
2022/11/21 04:13:16;;;;;;;61.72;29.25;;;;;;;3.31;100.00;100543.38;5035636;28;20025;-80
2022/11/21 04:15:43;;;;;;;67.30;29.17;;;;;;;3.34;100.00;100559.44;5035733;28;20032;-80
2022/11/21 04:18:08;;;;;;;75.45;29.40;;;;;;;3.28;100.00;100554.53;5035477;28;20030;-80
2022/11/21 04:20:34;;;;;;;56.10;27.67;;;;;;;3.35;100.00;100562.81;5035508;28;20500;-80
2022/11/21 04:22:59;;;;;;;57.85;29.27;;;;;;;3.28;100.00;100543.50;5035660;28;20037;-80
2022/11/21 04:25:25;;;;;;;60.47;28.80;;;;;;;3.38;100.00;100550.75;5035576;28;20057;-80
2022/11/21 04:27:50;;;;;;;66.07;29.45;;;;;;;3.41;100.00;100560.84;5035242;28;20546;-80
2022/11/21 04:30:16;;;;;;;56.67;27.70;;;;;;;3.36;100.00;100555.09;5035374;28;20064;-80
2022/11/21 04:32:41;;;;;;;53.67;29.48;;;;;;;3.22;100.00;100520.75;5035237;28;20025;-80
2022/11/21 04:35:07;;;;;;;51.92;26.90;;;;;;;3.45;100.00;100554.75;5035174;28;20036;-80
2022/11/21 04:37:32;;;;;;;54.72;28.33;;;;;;;3.51;100.00;100557.94;5035494;28;20026;-79
2022/11/21 04:39:57;;;;;;;51.80;28.27;;;;;;;3.32;100.00;100522.91;5035171;28;20449;-80
2022/11/21 04:42:23;;;;;;;51.28;27.52;;;;;;;3.53;100.00;100551.06;5035101;28;20032;-80
2022/11/21 04:44:48;;;;;;;54.95;28.52;;;;;;;3.54;100.00;100543.38;5034863;28;20041;-80
2022/11/21 04:47:14;;;;;;;53.90;28.13;;;;;;;3.33;100.00;100499.03;5034963;28;20065;-79
2022/11/21 04:49:39;;;;;;;48.88;26.55;;;;;;;3.43;100.00;100512.28;5034991;28;20032;-80
2022/11/21 04:52:04;;;;;;;57.13;28.30;;;;;;;3.29;100.00;100494.97;5034849;28;20376;-80
2022/11/21 04:54:30;;;;;;;50.40;26.20;;;;;;;3.32;100.00;100502.50;5033597;28;20036;-80
2022/11/21 04:56:55;;;;;;;51.63;28.17;;;;;;;3.29;100.00;100494.97;5034880;28;20025;-80
2022/11/21 04:59:20;;;;;;;60.15;27.52;;;;;;;3.32;100.00;100499.94;5034763;28;20017;-80
2022/11/21 05:01:45;;;;;;;53.92;28.33;;;;;;;3.47;100.00;100513.84;5034632;28;20436;-80
2022/11/21 05:04:11;;;;;;;116.10;28.38;;;;;;;3.37;100.00;100512.53;5034651;28;20025;-80
2022/11/21 05:06:36;;;;;;;73.82;27.02;;;;;;;3.27;100.00;100495.91;5034636;28;20064;-79
2022/11/21 05:09:01;;;;;;;74.90;26.38;;;;;;;3.41;100.00;100514.91;5034629;28;20120;-80
2022/11/21 05:14:11;;;;;;;82.97;26.88;;;;;;;3.08;100.00;100458.34;5034198;28;20099;-80
2022/11/21 05:16:36;;;;;;;65.80;25.85;;;;;;;3.38;100.00;100511.66;5034536;28;20120;-80
2022/11/21 05:19:01;;;;;;;96.30;28.60;;;;;;;3.38;100.00;100498.88;5034471;28;20068;-80
2022/11/21 05:21:27;;;;;;;82.93;25.98;;;;;;;3.35;100.00;100497.28;5034334;28;20018;-80
2022/11/21 05:23:52;;;;;;;83.85;27.73;;;;;;;3.19;100.00;100469.84;5034556;28;20092;-79
2022/11/21 05:26:17;;;;;;;109.78;28.05;;;;;;;3.33;100.00;100490.56;5034218;28;20025;-79
2022/11/21 05:28:42;;;;;;;89.28;26.90;;;;;;;3.32;100.00;100484.63;5034093;28;20025;-80
2022/11/21 05:31:08;;;;;;;123.75;27.60;;;;;;;3.26;100.00;100489.97;5034353;28;20366;-80
2022/11/21 05:33:33;;;;;;;111.65;27.38;;;;;;;3.25;100.00;100485.78;5034261;28;20032;-80
2022/11/21 05:35:58;;;;;;;102.13;26.38;;;;;;;3.11;100.00;100475.25;5034041;28;20127;-80
2022/11/21 05:38:24;;;;;;;107.45;26.08;;;;;;;3.06;100.00;100470.31;5034101;28;20458;-80
2022/11/21 05:40:51;;;;;;;110.47;26.98;;;;;;;3.09;100.00;100471.94;5033952;28;20036;-80
2022/11/21 05:46:00;;;;;;;78.45;25.90;;;;;;;2.85;100.00;100437.94;5033976;28;20106;-80
2022/11/21 05:48:26;;;;;;;96.28;25.30;;;;;;;3.03;100.00;100462.78;5033804;28;20431;-80
2022/11/21 05:50:51;;;;;;;63.85;25.00;;;;;;;3.23;100.00;100481.59;5033753;28;20533;-80
2022/11/21 05:53:16;;;;;;;64.32;26.70;;;;;;;3.24;100.00;100481.53;5034003;28;20034;-80
2022/11/21 05:55:42;;;;;;;65.68;25.27;;;;;;;3.22;100.00;100479.94;5034064;28;20072;-80
2022/11/21 05:58:09;;;;;;;78.75;24.58;;;;;;;3.25;100.00;100484.94;5033581;28;20044;-80
2022/11/21 06:00:35;;;;;;;82.85;26.83;;;;;;;3.15;100.00;100452.13;5032097;28;20060;-80
2022/11/21 06:05:44;;;;;;;74.82;24.98;;;;;;;3.29;100.00;100464.34;5033246;28;20679;-80
2022/11/21 06:08:10;;;;;;;77.20;26.08;;;;;;;3.28;100.00;100464.41;5033651;28;20025;-80
2022/11/21 06:10:35;;;;;;;60.05;24.27;;;;;;;3.35;100.00;100468.38;5033404;28;20465;-80
2022/11/21 06:13:01;;;;;;;59.58;24.83;;;;;;;3.34;100.00;100467.56;5033582;28;20469;-80
2022/11/21 06:15:27;;;;;;;58.67;24.55;;;;;;;3.38;100.00;100460.59;5033264;28;20477;-80
2022/11/21 06:17:53;;;;;;;67.13;26.65;;;;;;;3.40;100.00;100477.50;5033304;28;20100;-79
2022/11/21 06:20:18;;;;;;;70.55;24.13;;;;;;;3.40;100.00;100474.13;5033348;28;20114;-79
2022/11/21 06:22:43;;;;;;;59.15;24.63;;;;;;;3.42;100.00;100474.88;5033545;28;20025;-79
2022/11/21 06:25:09;;;;;;;70.95;26.42;;;;;;;3.42;100.00;100469.78;5033242;28;20025;-79
2022/11/21 06:27:34;;;;;;;54.95;25.73;;;;;;;3.36;100.00;100455.56;5032132;28;20025;-79
2022/11/21 06:29:59;;;;;;;72.57;26.33;;;;;;;3.33;100.00;100442.06;5015352;28;20029;-80
2022/11/21 06:32:24;;;;;;;54.17;25.98;;;;;;;3.34;100.00;100429.28;5033122;28;20358;-79
2022/11/21 06:34:50;;;;;;;51.08;24.83;;;;;;;3.35;100.00;100415.63;5033219;28;20032;-79
2022/11/21 06:37:15;;;;;;;62.40;24.98;;;;;;;3.50;100.00;100449.91;5033151;28;20061;-78
2022/11/21 06:39:40;;;;;;;58.78;25.58;;;;;;;3.51;100.00;100440.53;5033266;28;20029;-79
2022/11/21 06:42:06;;;;;;;57.40;26.58;;;;;;;3.48;100.00;100431.28;5033136;28;20044;-79
2022/11/21 06:44:31;;;;;;;52.58;25.83;;;;;;;3.56;100.00;100436.06;5032839;28;20037;-79
2022/11/21 06:46:56;;;;;;;50.47;25.58;;;;;;;3.60;100.00;100437.59;5033032;28;20032;-80
2022/11/21 06:49:22;;;;;;;50.67;24.67;;;;;;;3.61;100.00;100440.09;5033051;28;20473;-79
2022/11/21 06:51:47;;;;;;;48.72;25.55;;;;;;;3.66;100.00;100439.91;5032795;28;20056;-80
2022/11/21 06:54:12;;;;;;;49.08;25.10;;;;;;;3.55;100.00;100422.47;5032847;28;20386;-80
2022/11/21 06:56:38;;;;;;;52.45;24.52;;;;;;;3.55;100.00;100414.81;5032902;28;20037;-81
2022/11/21 06:59:03;;;;;;;48.92;24.52;;;;;;;3.68;100.00;100431.28;5032950;28;20025;-79
2022/11/21 07:01:29;;;;;;;48.75;25.95;;;;;;;3.75;100.00;100437.00;5032917;28;20509;-78
2022/11/21 07:03:54;;;;;;;45.42;25.75;;;;;;;3.69;100.00;100427.00;5032902;28;20018;-79
2022/11/21 07:06:20;;;;;;;50.90;26.67;;;;;;;3.70;100.00;100415.91;5032764;28;20493;-78
2022/11/21 07:08:46;;;;;;;45.25;24.20;;;;;;;3.70;100.00;100408.25;5032788;28;20057;-78
2022/11/21 07:11:13;;;;;;;46.45;25.10;;;;;;;3.77;100.00;100419.88;5032889;28;20048;-79
2022/11/21 07:13:38;;;;;;;45.78;25.17;;;;;;;3.69;100.00;100402.31;5032932;28;20028;-77
2022/11/21 07:16:06;;;;;;;45.92;25.08;;;;;;;3.56;100.00;100372.25;5032739;28;20116;-78
2022/11/21 07:18:33;;;;;;;48.72;26.10;;;;;;;3.63;100.00;100387.22;5035512;28;20032;-78
2022/11/21 07:21:00;;;;;;;44.08;25.88;;;;;;;3.80;100.00;100409.53;5036430;28;20030;-78
2022/11/21 07:23:26;;;;;;;44.22;25.80;;;;;;;3.84;100.00;100407.69;5036519;28;20026;-79
2022/11/21 07:25:51;;;;;;;45.38;25.77;;;;;;;3.78;100.00;100413.88;5036398;28;20492;-79
2022/11/21 07:28:17;;;;;;;45.97;24.88;;;;;;;3.76;100.00;100404.63;5036362;28;20033;-79
2022/11/21 07:30:42;;;;;;;47.50;25.65;;;;;;;3.71;100.00;100405.63;5036358;28;20028;-79
2022/11/21 07:33:08;;;;;;;45.15;24.90;;;;;;;3.70;100.00;100409.06;5018282;28;20117;-80
2022/11/21 07:35:36;;;;;;;43.58;25.08;;;;;;;3.61;100.00;100378.81;5036112;28;20025;-78
2022/11/21 07:38:02;;;;;;;47.42;24.63;;;;;;;3.87;100.00;100418.59;5036463;28;20505;-80
2022/11/21 07:40:31;;;;;;;44.85;26.08;;;;;;;3.95;100.00;100413.16;5036421;28;20119;-79
2022/11/21 07:43:02;;;;;;;44.63;25.10;;;;;;;3.92;100.00;100398.78;5036221;28;20029;-79
2022/11/21 07:45:27;;;;;;;50.97;25.83;;;;;;;4.05;100.00;100411.88;5035895;28;20516;-79
2022/11/21 07:48:01;;;;;;;46.72;24.50;;;;;;;3.87;100.00;100377.72;5036177;28;20053;-79
2022/11/21 07:50:27;;;;;;;48.00;25.15;;;;;;;4.11;100.00;100411.59;5035925;28;20029;-79
2022/11/21 07:53:00;;;;;;;45.05;24.48;;;;;;;4.17;100.00;100407.97;5036027;28;20033;-79
2022/11/21 07:55:28;;;;;;;44.50;25.15;;;;;;;4.08;100.00;100388.75;5036175;28;20017;-78
2022/11/21 07:58:04;;;;;;;43.83;25.85;;;;;;;4.20;100.00;100406.09;5036258;28;20079;-74
2022/11/21 08:00:31;;;;;;;44.33;24.55;;;;;;;3.95;100.00;100357.81;5035876;28;20041;-77
2022/11/21 08:02:57;;;;;;;46.40;25.45;;;;;;;4.26;100.00;100402.47;5035717;28;20474;-76
2022/11/21 08:05:22;;;;;;;41.35;24.08;;;;;;;4.18;100.00;100374.69;5035663;28;20033;-79
2022/11/21 08:07:47;;;;;;;49.13;23.85;;;;;;;4.39;100.00;100388.22;5035902;28;20052;-77
2022/11/21 08:10:14;;;;;;;43.25;23.42;;;;;;;4.59;100.00;100395.00;5035872;28;20116;-79
2022/11/21 08:12:39;;;;;;;44.97;23.88;;;;;;;4.73;100.00;100387.56;5035658;28;20060;-75
2022/11/21 08:15:05;;;;;;;42.17;23.50;;;;;;;4.88;100.00;100396.25;5016628;28;20061;-78
2022/11/21 08:17:31;;;;;;;39.95;23.25;;;;;;;4.81;100.00;100372.66;5035606;28;20350;-77
2022/11/21 08:19:57;;;;;;;38.00;22.40;;;;;;;4.84;100.00;100369.16;5035424;28;20055;-79
2022/11/21 08:22:23;;;;;;;37.88;21.98;;;;;;;4.88;100.00;100380.88;5035547;28;20032;-79
2022/11/21 08:24:48;;;;;;;37.13;20.20;;;;;;;4.73;100.00;100338.97;5035602;28;20096;-77
2022/11/21 08:27:15;;;;;;;35.42;19.95;;;;;;;4.87;100.00;100362.16;5035352;28;20473;-79
2022/11/21 08:29:41;;;;;;;28.58;18.40;;;;;;;4.88;100.00;100371.50;5035074;28;20113;-78
2022/11/21 08:32:06;;;;;;;32.50;18.55;;;;;;;4.69;100.00;100345.09;5035165;28;20104;-76
2022/11/21 08:34:31;;;;;;;31.00;18.10;;;;;;;4.84;100.00;100379.38;5035305;28;20037;-77
2022/11/21 08:36:58;;;;;;;30.80;19.25;;;;;;;4.72;100.00;100347.53;5035226;28;20477;-77
2022/11/21 08:39:24;;;;;;;31.38;16.98;;;;;;;4.72;100.00;100349.25;5035202;28;20021;-78
2022/11/21 08:42:02;;;;;;;32.00;18.20;;;;;;;4.76;100.00;100361.00;5035101;28;20377;-77
2022/11/21 08:44:36;;;;;;;29.55;16.52;;;;;;;4.66;100.00;100345.25;5034875;28;20026;-78
2022/11/21 08:47:02;;;;;;;28.52;16.70;;;;;;;4.60;100.00;100341.25;5034525;28;20116;-79
2022/11/21 08:49:27;;;;;;;28.25;16.17;;;;;;;4.32;100.00;100302.50;5034880;28;20441;-80
2022/11/21 08:51:53;;;;;;;24.75;15.07;;;;;;;4.47;100.00;100340.16;5035054;28;20416;-80
2022/11/21 08:54:21;;;;;;;27.83;15.52;;;;;;;4.20;100.00;100298.78;5034980;28;20029;-79
2022/11/21 08:56:47;;;;;;;27.75;15.02;;;;;;;4.46;100.00;100343.59;5034773;28;20036;-79
2022/11/21 08:59:12;;;;;;;23.95;14.88;;;;;;;4.43;100.00;100332.72;5034682;28;20029;-78
2022/11/21 09:01:37;;;;;;;23.95;13.65;;;;;;;4.41;100.00;100335.31;5034608;28;20022;-79
2022/11/21 09:04:06;;;;;;;24.98;14.13;;;;;;;4.40;100.00;100331.09;5034603;28;20060;-79
2022/11/21 09:06:32;;;;;;;27.58;13.75;;;;;;;4.38;100.00;100330.34;5017691;28;20041;-79
2022/11/21 09:08:58;;;;;;;26.95;13.73;;;;;;;4.39;100.00;100324.31;5014953;28;20029;-79
2022/11/21 09:11:26;;;;;;;29.27;13.82;;;;;;;4.27;100.00;100291.66;5014754;28;20040;-78
2022/11/21 09:19:22;;;;;;;19.40;12.70;;;;;;;4.30;100.00;100302.56;5014959;28;20080;-80
2022/11/21 09:21:54;;;;;;;22.00;13.07;;;;;;;4.13;100.00;100268.44;5014279;28;20055;-79
2022/11/21 09:24:19;;;;;;;27.30;13.70;;;;;;;3.50;100.00;100161.44;5014611;28;20025;-80
2022/11/21 09:26:54;;;;;;;28.05;12.70;;;;;;;4.25;100.00;100278.13;5014371;28;20088;-79
2022/11/21 09:29:22;;;;;;;22.88;11.85;;;;;;;4.15;100.00;100246.22;5014379;28;20026;-79
2022/11/21 09:31:55;;;;;;;23.38;11.60;;;;;;;3.91;100.00;100207.28;5026397;23;20446;-79
2022/11/21 09:34:20;;;;;;;25.17;11.93;;;;;;;4.11;100.00;100230.19;5033866;28;20081;-80
2022/11/21 09:36:46;;;;;;;17.45;11.38;;;;;;;4.39;100.00;100287.72;5034221;28;20483;-80
2022/11/21 09:39:16;;;;;;;21.20;10.02;;;;;;;3.99;100.00;100220.53;5033943;28;20025;-81
2022/11/21 09:42:03;;;;;;;18.33;10.13;;;;;;;4.59;100.00;100300.41;5015228;28;20048;-80
2022/11/21 09:44:49;;;;;;;18.58;10.63;;;;;;;4.44;100.00;100260.22;5034267;28;20056;-80
2022/11/21 09:47:31;;;;;;;17.60;11.00;;;;;;;4.67;100.00;100294.94;5033644;28;20041;-80
2022/11/21 09:50:24;;;;;;;27.85;10.45;;;;;;;4.70;100.00;100285.38;5033784;28;20021;-79
2022/11/21 09:52:59;;;;;;;18.20;9.48;;;;;;;4.70;100.00;100280.25;5033924;28;20484;-78
2022/11/21 09:55:40;;;;;;;20.42;9.32;;;;;;;4.58;100.00;100256.09;5033676;28;20026;-80
2022/11/21 09:58:27;;;;;;;22.13;10.33;;;;;;;4.84;100.00;100285.56;5016037;28;20025;-79
2022/11/21 10:00:53;;;;;;;17.20;8.88;;;;;;;4.62;100.00;100236.31;5015975;28;20022;-79
2022/11/21 10:03:21;;;;;;;18.27;9.48;;;;;;;4.65;100.00;100231.06;5033535;28;20036;-79
2022/11/21 10:06:02;;;;;;;17.63;9.38;;;;;;;4.94;100.00;100277.44;5033554;28;20489;-79
2022/11/21 10:08:57;;;;;;;20.42;9.10;;;;;;;4.97;100.00;100264.50;5033472;28;20476;-78
2022/11/21 10:15:06;;;;;;;16.55;9.05;;;;;;;4.99;100.00;100263.50;5033844;28;20048;-79
2022/11/21 10:17:49;;;;;;;18.50;8.88;;;;;;;5.01;100.00;100260.88;5033076;28;20017;-79
2022/11/21 10:20:32;;;;;;;15.52;9.30;;;;;;;5.05;100.00;100254.72;5033416;28;20497;-79
2022/11/21 10:23:18;;;;;;;24.33;9.32;;;;;;;5.11;100.00;100249.28;5033602;28;20448;-79
2022/11/21 10:25:53;;;;;;;17.88;9.40;;;;;;;5.03;100.00;100226.66;5033546;28;20055;-79
2022/11/21 10:28:44;;;;;;;18.50;9.18;;;;;;;5.01;100.00;100205.41;5015611;28;20033;-80
2022/11/21 10:31:14;;;;;;;17.90;9.18;;;;;;;5.29;100.00;100233.00;5033330;28;20032;-79
2022/11/21 10:33:40;;;;;;;17.98;9.48;;;;;;;5.09;100.00;100190.50;5032723;28;20045;-81
2022/11/21 10:36:27;;;;;;;20.77;9.48;;;;;;;5.37;100.00;100230.06;5033199;28;20033;-80
2022/11/21 10:39:16;;;;;;;21.20;8.50;;;;;;;5.40;100.00;100235.84;5032887;28;20037;-79
2022/11/21 10:41:57;;;;;;;21.48;8.20;;;;;;;5.35;100.00;100211.41;5033093;28;20036;-79
2022/11/21 10:47:27;;;;;;;17.77;7.43;;;;;;;5.33;100.00;100201.25;5033111;28;20044;-80
2022/11/21 10:50:24;;;;;;;16.40;7.95;;;;;;;5.36;100.00;100201.06;5032900;28;20105;-79
2022/11/21 10:54:31;;;;;;;17.15;7.32;;;;;;;5.45;100.00;100208.28;5035777;28;20038;-79
2022/11/21 10:56:11;;;;;;;13.73;8.05;;;;;;;5.47;100.00;100206.47;5036852;28;20030;-78
2022/11/21 10:58:40;;;;;;;15.27;7.22;;;;;;;5.49;100.00;100214.06;5037152;28;20052;-79
2022/11/21 11:01:05;;;;;;;16.38;7.53;;;;;;;5.44;100.00;100198.13;5019213;28;20176;-79
2022/11/21 11:03:31;;;;;;;15.05;7.75;;;;;;;5.58;100.00;100208.47;5036695;28;20064;-80
2022/11/21 11:05:57;;;;;;;17.30;7.55;;;;;;;5.64;100.00;100197.09;5036672;28;20022;-80
2022/11/21 11:08:22;;;;;;;17.73;7.32;;;;;;;5.67;100.00;100187.50;5036700;28;20108;-79
2022/11/21 11:11:01;;;;;;;17.35;7.07;;;;;;;5.79;100.00;100183.44;5036909;28;20491;-79
2022/11/21 11:16:02;;;;;;;15.88;7.15;;;;;;;5.96;100.00;100172.34;5036853;28;20110;-80
2022/11/21 11:18:28;;;;;;;15.57;6.20;;;;;;;6.07;100.00;100170.00;5036465;28;20083;-80
2022/11/21 11:21:10;;;;;;;12.98;6.57;;;;;;;6.00;100.00;100136.22;5036545;28;20029;-80
2022/11/21 11:23:35;;;;;;;16.35;5.85;;;;;;;6.12;100.00;100132.16;5036704;28;20097;-85
2022/11/21 11:26:00;;;;;;;14.50;5.43;;;;;;;5.96;100.00;100090.31;5037059;28;20106;-82
2022/11/21 11:28:34;;;;;;;13.48;6.30;;;;;;;6.26;100.00;100116.81;5036464;28;20535;-83
2022/11/21 11:31:00;;;;;;;12.77;5.70;;;;;;;6.63;100.00;100158.31;5018322;28;20037;-83
2022/11/21 11:33:40;;;;;;;14.90;5.35;;;;;;;6.69;100.00;100150.28;5018156;28;20068;-83
2022/11/21 11:36:30;;;;;;;14.35;5.53;;;;;;;6.69;100.00;100142.59;5036259;28;20479;-82
2022/11/21 11:38:59;;;;;;;10.15;4.45;;;;;;;6.66;100.00;100131.66;5036419;28;20022;-83